Time;durP1;ratioP1;P1;durP2;ratioP2;P2;SDS_P1;SDS_P2;PMS_P1;PMS_P2;Temp;Humidity;BMP_temperature;BMP_pressure;BME280_temperature;BME280_humidity;BME280_pressure;Samples;Min_cycle;Max_cycle;Signal;HPM_P1;HPM_P2
2023/07/23 00:02:22;;;;;;;2.10;1.70;;;21.30;98.70;;;;;;5034160;28;20484;-41
2023/07/23 00:04:48;;;;;;;4.38;2.00;;;21.30;98.70;;;;;;5034094;28;20025;-41
2023/07/23 00:07:13;;;;;;;4.15;1.77;;;21.30;98.70;;;;;;5016332;28;20057;-41
2023/07/23 00:09:39;;;;;;;2.80;1.70;;;21.40;98.70;;;;;;5033580;28;20056;-41
2023/07/23 00:12:05;;;;;;;3.25;2.05;;;21.30;98.70;;;;;;5033931;28;20481;-41
2023/07/23 00:14:30;;;;;;;4.55;1.88;;;21.30;98.60;;;;;;5033995;28;20028;-44
2023/07/23 00:16:56;;;;;;;2.35;2.00;;;21.30;98.70;;;;;;5034300;28;20021;-43
2023/07/23 00:19:22;;;;;;;2.78;1.75;;;21.30;98.70;;;;;;5033488;28;20034;-42
2023/07/23 00:21:48;;;;;;;2.63;1.98;;;21.30;98.70;;;;;;5033827;28;20030;-42
2023/07/23 00:24:15;;;;;;;3.63;2.20;;;21.30;98.70;;;;;;5033621;28;20400;-42
2023/07/23 00:26:40;;;;;;;2.33;1.70;;;21.30;98.70;;;;;;5033976;28;20033;-42
2023/07/23 00:29:06;;;;;;;2.85;1.73;;;21.30;99.00;;;;;;5033397;28;20558;-41
2023/07/23 00:31:32;;;;;;;4.40;1.90;;;21.30;98.70;;;;;;5033775;28;20033;-42
2023/07/23 00:33:57;;;;;;;3.08;2.13;;;21.30;98.70;;;;;;5033594;28;20033;-43
2023/07/23 00:36:23;;;;;;;2.53;2.05;;;21.30;98.70;;;;;;5033676;28;20064;-43
2023/07/23 00:38:49;;;;;;;2.33;1.90;;;21.30;98.80;;;;;;5033327;28;20040;-42
2023/07/23 00:41:15;;;;;;;2.72;2.00;;;21.30;98.70;;;;;;5033361;28;20385;-41
2023/07/23 00:43:40;;;;;;;2.38;1.95;;;21.30;98.70;;;;;;5033404;28;20059;-42
2023/07/23 00:46:07;;;;;;;2.53;1.85;;;21.30;98.80;;;;;;5033308;28;20437;-44
2023/07/23 00:48:33;;;;;;;2.78;1.95;;;21.30;98.70;;;;;;5033245;28;20025;-42
2023/07/23 00:50:59;;;;;;;2.65;1.90;;;21.20;98.70;;;;;;5033044;28;20373;-44
2023/07/23 00:53:25;;;;;;;2.90;1.90;;;21.30;98.70;;;;;;5033052;28;20026;-41
2023/07/23 00:55:52;;;;;;;2.42;1.90;;;21.30;98.70;;;;;;5033426;28;20438;-41
2023/07/23 00:58:18;;;;;;;2.38;1.95;;;21.20;98.70;;;;;;5033076;28;20021;-41
2023/07/23 01:00:44;;;;;;;2.45;1.80;;;21.30;98.80;;;;;;5032886;28;20022;-43
2023/07/23 01:03:09;;;;;;;2.58;1.90;;;21.30;98.70;;;;;;5033432;28;20025;-43
2023/07/23 01:05:37;;;;;;;2.17;1.90;;;21.30;98.80;;;;;;5033006;28;20496;-43
2023/07/23 01:08:04;;;;;;;2.03;1.65;;;21.20;98.70;;;;;;5032798;28;20480;-46
2023/07/23 01:10:33;;;;;;;2.70;2.00;;;21.20;98.70;;;;;;5032620;28;20038;-42
2023/07/23 01:12:59;;;;;;;3.92;1.80;;;21.20;98.70;;;;;;5032746;28;20384;-42
2023/07/23 01:15:26;;;;;;;3.28;2.10;;;21.20;98.60;;;;;;5032856;28;20041;-39
2023/07/23 01:17:52;;;;;;;2.50;1.85;;;21.20;98.60;;;;;;5032529;28;20076;-42
2023/07/23 01:20:18;;;;;;;5.60;2.03;;;21.20;98.70;;;;;;5032927;28;20079;-42
2023/07/23 01:22:44;;;;;;;2.42;1.80;;;21.20;98.60;;;;;;5032929;28;20037;-39
2023/07/23 01:25:09;;;;;;;2.72;2.00;;;21.20;98.70;;;;;;5032835;28;20087;-42
2023/07/23 01:27:35;;;;;;;3.22;1.80;;;21.20;98.60;;;;;;5032562;28;20029;-43
2023/07/23 01:30:01;;;;;;;3.33;2.10;;;21.20;98.40;;;;;;5032350;28;20060;-41
2023/07/23 01:32:26;;;;;;;2.28;2.00;;;21.20;98.50;;;;;;5032444;28;20065;-42
2023/07/23 01:34:52;;;;;;;2.35;1.83;;;21.20;98.60;;;;;;5032375;28;20141;-42
2023/07/23 01:37:19;;;;;;;2.83;2.08;;;21.20;98.60;;;;;;5032413;28;20033;-41
2023/07/23 01:39:44;;;;;;;3.25;2.15;;;21.20;98.50;;;;;;5032063;28;20148;-45
2023/07/23 01:42:11;;;;;;;2.55;1.95;;;21.20;98.50;;;;;;5032375;28;20516;-42
2023/07/23 01:44:37;;;;;;;2.60;1.90;;;21.20;98.50;;;;;;5032252;28;20523;-42
2023/07/23 01:47:03;;;;;;;3.38;2.20;;;21.20;98.50;;;;;;5032229;28;20029;-42
2023/07/23 01:49:29;;;;;;;2.97;2.00;;;21.10;98.40;;;;;;5031759;28;20485;-42
2023/07/23 01:51:55;;;;;;;2.00;1.75;;;21.20;98.40;;;;;;5032195;28;20018;-41
2023/07/23 01:54:20;;;;;;;3.90;2.17;;;21.20;98.40;;;;;;5031905;28;20025;-41
2023/07/23 01:56:47;;;;;;;2.50;1.88;;;21.20;98.30;;;;;;5032035;28;20413;-41
2023/07/23 01:59:13;;;;;;;3.88;1.75;;;21.20;98.60;;;;;;5031253;28;20020;-40
2023/07/23 02:01:39;;;;;;;2.53;1.77;;;21.20;98.30;;;;;;5031897;28;20500;-42
2023/07/23 02:04:04;;;;;;;1.95;1.55;;;21.20;98.40;;;;;;5031808;28;20032;-44
2023/07/23 02:06:30;;;;;;;2.67;1.90;;;21.20;98.40;;;;;;5031924;28;20029;-44
2023/07/23 02:08:56;;;;;;;3.78;2.05;;;21.20;98.30;;;;;;5031621;28;20021;-46
2023/07/23 02:11:21;;;;;;;2.55;2.00;;;21.20;98.20;;;;;;5031712;28;20033;-44
2023/07/23 02:13:47;;;;;;;7.63;2.35;;;21.10;98.20;;;;;;5014225;28;20026;-42
2023/07/23 02:16:20;;;;;;;1.90;1.50;;;21.10;98.20;;;;;;5031714;28;20034;-41
2023/07/23 02:18:46;;;;;;;2.78;1.85;;;21.20;98.30;;;;;;5031233;28;20401;-43
2023/07/23 02:21:11;;;;;;;1.63;1.52;;;21.10;98.20;;;;;;5031869;28;20022;-40
2023/07/23 02:23:37;;;;;;;3.05;2.15;;;21.20;98.20;;;;;;5031723;28;20520;-40
2023/07/23 02:26:03;;;;;;;3.20;2.08;;;21.10;98.10;;;;;;5031549;28;20108;-43
2023/07/23 02:28:28;;;;;;;2.10;1.90;;;21.10;98.10;;;;;;5013706;28;20177;-48
2023/07/23 02:30:58;;;;;;;2.67;1.73;;;21.10;98.20;;;;;;5031334;28;20037;-42
2023/07/23 02:33:24;;;;;;;2.25;1.98;;;21.10;98.10;;;;;;5013606;28;20118;-41
2023/07/23 02:35:50;;;;;;;3.08;1.88;;;21.10;98.10;;;;;;5031791;28;20130;-41
2023/07/23 02:38:16;;;;;;;2.75;1.85;;;21.10;98.00;;;;;;5013511;28;20026;-42
2023/07/23 02:40:41;;;;;;;4.35;2.10;;;21.10;98.00;;;;;;5031106;28;20096;-42
2023/07/23 02:43:11;;;;;;;2.85;1.90;;;21.10;98.00;;;;;;5031290;28;20021;-47
2023/07/23 02:45:37;;;;;;;4.25;1.98;;;21.10;98.10;;;;;;5031382;28;20104;-41
2023/07/23 02:48:03;;;;;;;3.85;1.60;;;21.10;98.00;;;;;;5031263;28;20029;-42
2023/07/23 02:50:29;;;;;;;2.20;1.70;;;21.10;98.10;;;;;;5031033;28;20034;-41
2023/07/23 02:52:54;;;;;;;2.80;1.95;;;21.10;98.10;;;;;;5031109;28;20029;-42
2023/07/23 02:55:22;;;;;;;3.10;2.10;;;21.10;98.10;;;;;;5031572;28;20029;-44
2023/07/23 02:57:49;;;;;;;2.33;1.52;;;21.10;98.10;;;;;;5031260;28;20033;-41
2023/07/23 03:00:15;;;;;;;2.17;1.80;;;21.10;98.10;;;;;;5030899;28;20018;-43
2023/07/23 03:02:40;;;;;;;3.17;1.98;;;21.10;98.00;;;;;;5031135;28;20116;-44
2023/07/23 03:05:07;;;;;;;2.47;1.98;;;21.10;98.10;;;;;;5031133;28;20036;-42
2023/07/23 03:07:34;;;;;;;3.33;2.05;;;21.10;98.00;;;;;;5030949;28;20033;-41
2023/07/23 03:10:00;;;;;;;2.92;2.20;;;21.10;98.00;;;;;;5030979;28;20029;-40
2023/07/23 03:12:26;;;;;;;2.50;1.98;;;21.10;98.00;;;;;;5035078;28;20091;-41
2023/07/23 03:14:53;;;;;;;2.33;1.73;;;21.10;98.00;;;;;;5034924;28;20033;-46
2023/07/23 03:17:18;;;;;;;2.40;1.65;;;21.10;98.00;;;;;;5035069;28;20053;-44
2023/07/23 03:19:44;;;;;;;2.53;1.83;;;21.10;98.00;;;;;;5033284;28;20064;-42
2023/07/23 03:22:09;;;;;;;2.13;1.90;;;21.10;97.90;;;;;;5033676;28;20029;-42
2023/07/23 03:24:35;;;;;;;2.42;1.98;;;21.00;97.90;;;;;;5033537;28;20425;-41
2023/07/23 03:27:01;;;;;;;3.30;2.28;;;21.00;97.90;;;;;;5033581;28;20025;-44
2023/07/23 03:29:26;;;;;;;1.75;1.48;;;21.10;97.90;;;;;;5033118;28;20037;-46
2023/07/23 03:31:52;;;;;;;3.05;1.90;;;21.10;97.90;;;;;;5033483;28;20102;-42
2023/07/23 03:34:17;;;;;;;2.58;1.70;;;21.10;97.90;;;;;;5033324;28;20497;-43
2023/07/23 03:36:43;;;;;;;2.75;1.90;;;21.00;97.80;;;;;;5033630;28;20025;-44
2023/07/23 03:39:08;;;;;;;2.33;1.83;;;21.00;97.80;;;;;;5033176;28;20515;-41
2023/07/23 03:41:34;;;;;;;2.40;1.92;;;21.00;97.80;;;;;;5033431;28;20026;-42
2023/07/23 03:44:00;;;;;;;2.55;1.90;;;21.00;97.80;;;;;;5033237;28;20025;-43
2023/07/23 03:46:25;;;;;;;2.80;1.98;;;21.00;97.90;;;;;;5033191;28;20083;-45
2023/07/23 03:48:51;;;;;;;1.92;1.70;;;21.00;97.80;;;;;;5033503;28;20033;-42
2023/07/23 03:51:20;;;;;;;3.47;1.90;;;21.00;97.80;;;;;;5033419;28;20087;-43
2023/07/23 03:53:45;;;;;;;4.30;1.98;;;21.00;97.80;;;;;;5033058;28;20025;-43
2023/07/23 03:56:11;;;;;;;2.53;1.90;;;21.00;97.80;;;;;;5033098;28;20026;-41
2023/07/23 03:58:36;;;;;;;2.67;2.03;;;21.00;97.80;;;;;;5032858;28;20485;-43
2023/07/23 04:01:02;;;;;;;3.33;1.95;;;21.00;97.70;;;;;;5032835;28;20032;-40
2023/07/23 04:03:28;;;;;;;4.18;1.90;;;21.00;97.80;;;;;;5032995;28;20060;-44
2023/07/23 04:05:53;;;;;;;3.28;1.75;;;21.00;97.70;;;;;;5033101;28;20029;-41
2023/07/23 04:08:19;;;;;;;2.33;1.80;;;21.00;97.80;;;;;;5032840;28;20044;-42
2023/07/23 04:10:44;;;;;;;3.35;1.90;;;21.00;97.80;;;;;;5032651;28;20093;-42
2023/07/23 04:13:10;;;;;;;2.03;1.60;;;21.00;97.70;;;;;;5032690;28;20083;-42
2023/07/23 04:15:36;;;;;;;3.13;2.00;;;21.00;97.80;;;;;;5032708;28;20079;-43
2023/07/23 04:18:02;;;;;;;2.28;1.90;;;21.00;97.80;;;;;;4989282;28;1256408;-41
2023/07/23 04:20:28;;;;;;;3.45;2.00;;;21.00;97.80;;;;;;5033677;28;20022;-41
2023/07/23 04:22:53;;;;;;;1.83;1.60;;;21.00;97.80;;;;;;5033328;28;20519;-43
2023/07/23 04:25:19;;;;;;;2.60;1.83;;;21.00;97.70;;;;;;5033809;28;20057;-41
2023/07/23 04:27:44;;;;;;;1.75;1.60;;;21.00;97.70;;;;;;5033604;28;20500;-41
2023/07/23 04:30:10;;;;;;;3.38;2.13;;;20.90;97.70;;;;;;5033449;28;20029;-42
2023/07/23 04:32:36;;;;;;;3.60;1.88;;;21.00;97.60;;;;;;5033858;28;20449;-42
2023/07/23 04:35:01;;;;;;;3.90;2.20;;;20.90;97.70;;;;;;5033548;28;20101;-40
2023/07/23 04:37:28;;;;;;;2.85;1.92;;;21.00;97.70;;;;;;5033581;28;20029;-44
2023/07/23 04:39:53;;;;;;;3.20;2.00;;;20.90;97.70;;;;;;5033339;28;20017;-44
2023/07/23 04:42:19;;;;;;;3.95;1.70;;;21.00;97.70;;;;;;5033668;28;20392;-42
2023/07/23 04:44:44;;;;;;;2.65;2.00;;;20.90;97.80;;;;;;5033441;28;20120;-42
2023/07/23 04:47:10;;;;;;;1.88;1.67;;;20.90;97.70;;;;;;5033491;28;20029;-41
2023/07/23 04:49:36;;;;;;;2.33;1.73;;;20.90;97.70;;;;;;5033000;28;20472;-41
2023/07/23 04:52:02;;;;;;;3.00;1.83;;;20.90;97.80;;;;;;5033298;28;20033;-40
2023/07/23 04:54:27;;;;;;;2.50;1.85;;;21.00;97.80;;;;;;5033151;28;20071;-43
2023/07/23 04:56:53;;;;;;;2.58;1.80;;;21.00;97.80;;;;;;5033177;28;20045;-41
2023/07/23 04:59:19;;;;;;;3.33;1.73;;;21.00;97.80;;;;;;5032801;28;20610;-40
2023/07/23 05:01:44;;;;;;;2.65;1.75;;;20.90;97.70;;;;;;5033127;28;20021;-41
2023/07/23 05:04:10;;;;;;;2.35;1.90;;;21.00;97.80;;;;;;5032992;28;20503;-41
2023/07/23 05:06:35;;;;;;;2.88;2.17;;;21.00;97.80;;;;;;5033023;28;20029;-41
2023/07/23 05:09:01;;;;;;;3.17;1.85;;;21.00;97.80;;;;;;5032883;28;20392;-42
2023/07/23 05:11:26;;;;;;;1.90;1.65;;;21.00;97.80;;;;;;5032900;28;20064;-40
2023/07/23 05:13:52;;;;;;;2.35;1.90;;;20.90;97.90;;;;;;5032695;28;20029;-40
2023/07/23 05:16:18;;;;;;;2.70;1.80;;;21.00;98.00;;;;;;5033052;28;20025;-41
2023/07/23 05:18:43;;;;;;;2.60;1.88;;;21.00;98.00;;;;;;5032447;28;20611;-42
2023/07/23 05:21:09;;;;;;;3.35;1.90;;;21.00;98.00;;;;;;5032692;28;20025;-42
2023/07/23 05:23:35;;;;;;;4.78;2.00;;;21.00;97.90;;;;;;5032666;28;20035;-43
2023/07/23 05:26:00;;;;;;;2.28;1.85;;;21.00;98.00;;;;;;5032531;28;20513;-41
2023/07/23 05:28:26;;;;;;;2.28;1.80;;;21.00;98.00;;;;;;5032498;28;20044;-43
2023/07/23 05:30:58;;;;;;;2.83;1.83;;;20.90;98.10;;;;;;5032360;28;20068;-41
2023/07/23 05:33:23;;;;;;;4.35;2.00;;;20.90;98.10;;;;;;5031600;28;20018;-43
2023/07/23 05:35:49;;;;;;;2.20;1.80;;;21.00;98.10;;;;;;5032599;28;20038;-44
2023/07/23 05:38:15;;;;;;;3.10;1.80;;;21.00;98.20;;;;;;5032311;28;20013;-42
2023/07/23 05:40:40;;;;;;;2.25;1.80;;;21.00;98.30;;;;;;5032089;28;20021;-42
2023/07/23 05:43:08;;;;;;;2.35;1.70;;;21.00;98.30;;;;;;5032330;28;20064;-45
2023/07/23 05:45:34;;;;;;;2.00;1.70;;;21.00;98.30;;;;;;5032281;28;20473;-41
2023/07/23 05:48:00;;;;;;;1.98;1.70;;;21.00;98.30;;;;;;5032194;28;20091;-41
2023/07/23 05:50:25;;;;;;;4.43;2.00;;;21.00;98.30;;;;;;5031964;28;20029;-41
2023/07/23 05:52:51;;;;;;;2.72;1.83;;;21.00;98.30;;;;;;5032106;28;20025;-42
2023/07/23 05:55:16;;;;;;;2.33;1.77;;;21.00;98.30;;;;;;5032072;28;20435;-40
2023/07/23 05:57:42;;;;;;;2.38;1.85;;;21.00;98.30;;;;;;5031976;28;20029;-40
2023/07/23 06:00:08;;;;;;;2.70;1.70;;;21.00;98.30;;;;;;5031770;28;20076;-42
2023/07/23 06:02:34;;;;;;;2.33;1.55;;;21.00;98.30;;;;;;5031907;28;20021;-42
2023/07/23 06:04:59;;;;;;;2.10;1.45;;;21.00;98.20;;;;;;5031903;28;20083;-43
2023/07/23 06:07:25;;;;;;;1.75;1.40;;;21.00;98.20;;;;;;5031843;28;20021;-42
2023/07/23 06:09:50;;;;;;;2.30;1.60;;;21.00;98.30;;;;;;5031474;28;20035;-44
2023/07/23 06:12:16;;;;;;;2.10;1.42;;;21.00;98.20;;;;;;5031937;28;20120;-42
2023/07/23 06:14:41;;;;;;;1.95;1.50;;;21.00;98.20;;;;;;5031782;28;20029;-41
2023/07/23 06:17:07;;;;;;;1.95;1.60;;;21.00;98.20;;;;;;5031717;28;20029;-44
2023/07/23 06:19:33;;;;;;;2.58;1.58;;;21.00;98.20;;;;;;5031307;28;20432;-43
2023/07/23 06:21:59;;;;;;;2.33;1.70;;;21.00;98.20;;;;;;5031611;28;20060;-44
2023/07/23 06:24:24;;;;;;;2.58;1.60;;;21.00;98.20;;;;;;5031572;28;20026;-41
2023/07/23 06:26:50;;;;;;;2.20;1.75;;;21.00;98.20;;;;;;5031562;28;20612;-44
2023/07/23 06:29:15;;;;;;;3.55;1.70;;;21.00;98.20;;;;;;5031454;28;20076;-41
2023/07/23 06:31:41;;;;;;;1.88;1.67;;;21.10;98.20;;;;;;5031447;28;20451;-41
2023/07/23 06:34:07;;;;;;;1.50;1.40;;;21.00;98.20;;;;;;5031420;28;20029;-44
2023/07/23 06:36:33;;;;;;;2.40;1.80;;;21.10;98.20;;;;;;5031485;28;20026;-44
2023/07/23 06:38:58;;;;;;;2.22;1.83;;;21.00;98.20;;;;;;5030985;28;20028;-43
2023/07/23 06:41:24;;;;;;;2.13;1.50;;;21.10;98.30;;;;;;5031373;28;20026;-44
2023/07/23 06:43:49;;;;;;;2.08;1.58;;;21.00;98.20;;;;;;5031368;28;20481;-42
2023/07/23 06:46:19;;;;;;;2.17;1.65;;;21.10;98.20;;;;;;5031215;28;20152;-43
2023/07/23 06:48:45;;;;;;;1.65;1.42;;;21.10;98.20;;;;;;5031305;28;20032;-44
2023/07/23 06:51:11;;;;;;;2.10;1.60;;;21.10;98.20;;;;;;5031173;28;20025;-41
2023/07/23 06:53:36;;;;;;;2.83;1.60;;;21.10;98.20;;;;;;5031065;28;20114;-41
2023/07/23 06:56:07;;;;;;;2.22;1.60;;;21.10;98.20;;;;;;5031205;28;20029;-41
2023/07/23 06:58:36;;;;;;;2.00;1.48;;;21.00;98.20;;;;;;5031081;28;20017;-46
2023/07/23 07:01:02;;;;;;;2.00;1.45;;;21.10;98.30;;;;;;5030977;28;20507;-45
2023/07/23 07:03:28;;;;;;;2.17;1.77;;;21.10;98.20;;;;;;5031172;28;20029;-40
2023/07/23 07:05:54;;;;;;;1.88;1.38;;;21.10;98.20;;;;;;5031139;28;20389;-47
2023/07/23 07:08:19;;;;;;;2.40;1.85;;;21.10;98.20;;;;;;5031069;28;20191;-42
2023/07/23 07:10:46;;;;;;;2.70;1.83;;;21.10;98.20;;;;;;5031180;28;20033;-40
2023/07/23 07:13:14;;;;;;;2.55;1.70;;;21.10;98.20;;;;;;5031004;28;20453;-41
2023/07/23 07:15:41;;;;;;;2.30;1.60;;;21.10;98.20;;;;;;5030967;28;20026;-41
2023/07/23 07:18:07;;;;;;;2.17;1.45;;;21.10;98.20;;;;;;5030829;28;20410;-43
2023/07/23 07:20:32;;;;;;;2.15;1.70;;;21.10;98.50;;;;;;5031308;28;20052;-43
2023/07/23 07:22:58;;;;;;;3.90;1.30;;;21.10;98.20;;;;;;5030826;28;20485;-45
2023/07/23 07:25:23;;;;;;;1.88;1.50;;;21.10;98.20;;;;;;5013188;28;20030;-43
2023/07/23 07:27:49;;;;;;;2.25;1.60;;;21.10;98.20;;;;;;5030892;28;20041;-44
2023/07/23 07:30:15;;;;;;;2.30;1.70;;;21.10;98.20;;;;;;5030624;28;20029;-41
2023/07/23 07:32:40;;;;;;;2.10;1.50;;;21.10;98.20;;;;;;5013104;28;20048;-43
2023/07/23 07:35:06;;;;;;;1.63;1.38;;;21.10;98.20;;;;;;5030828;28;20021;-43
2023/07/23 07:37:32;;;;;;;2.55;1.80;;;21.10;98.20;;;;;;5030741;28;20018;-41
2023/07/23 07:39:57;;;;;;;2.00;1.40;;;21.10;98.20;;;;;;5030818;28;20029;-41
2023/07/23 07:42:23;;;;;;;2.33;1.80;;;21.10;98.20;;;;;;5031019;28;20064;-41
2023/07/23 07:44:48;;;;;;;2.03;1.58;;;21.20;98.20;;;;;;5012971;28;20017;-42
2023/07/23 07:47:15;;;;;;;1.92;1.50;;;21.10;98.20;;;;;;5030713;28;20036;-43
2023/07/23 07:49:41;;;;;;;1.60;1.42;;;21.10;98.20;;;;;;5030369;28;20067;-42
2023/07/23 07:52:07;;;;;;;1.88;1.48;;;21.20;98.20;;;;;;5030585;28;20053;-40
2023/07/23 07:54:35;;;;;;;2.42;1.67;;;21.20;98.20;;;;;;5030599;28;20539;-42
2023/07/23 07:57:02;;;;;;;3.92;1.63;;;21.10;98.20;;;;;;5032196;28;20024;-40
2023/07/23 07:59:28;;;;;;;1.85;1.58;;;21.10;98.20;;;;;;5016374;28;20080;-41
2023/07/23 08:01:54;;;;;;;1.88;1.50;;;21.20;98.20;;;;;;5034225;28;20025;-41
2023/07/23 08:04:20;;;;;;;1.90;1.30;;;21.20;98.20;;;;;;5034633;28;20112;-41
2023/07/23 08:06:47;;;;;;;1.73;1.27;;;21.20;98.20;;;;;;5034137;28;20025;-41
2023/07/23 08:09:16;;;;;;;2.00;1.67;;;21.20;98.20;;;;;;5016076;28;20033;-41
2023/07/23 08:11:42;;;;;;;1.90;1.40;;;21.20;98.20;;;;;;5034076;28;20047;-44
2023/07/23 08:14:09;;;;;;;2.00;1.80;;;21.20;98.20;;;;;;5034013;28;20036;-44
2023/07/23 08:16:35;;;;;;;4.90;1.60;;;21.20;98.60;;;;;;5034868;28;20454;-41
2023/07/23 08:19:01;;;;;;;1.50;1.40;;;21.20;98.20;;;;;;5033415;28;20032;-42
2023/07/23 08:21:27;;;;;;;2.03;1.50;;;21.20;98.20;;;;;;5033985;28;20385;-46
2023/07/23 08:23:53;;;;;;;1.92;1.40;;;21.20;98.20;;;;;;5033929;28;20111;-40
2023/07/23 08:26:20;;;;;;;1.80;1.50;;;21.20;98.20;;;;;;5033894;28;20033;-42
2023/07/23 08:28:53;;;;;;;2.60;1.55;;;21.20;98.20;;;;;;5033519;28;20072;-42
2023/07/23 08:31:19;;;;;;;1.67;1.48;;;21.20;98.20;;;;;;5033722;28;20041;-41
2023/07/23 08:33:47;;;;;;;1.63;1.40;;;21.20;98.20;;;;;;5033506;28;20032;-41
2023/07/23 08:36:14;;;;;;;1.70;1.20;;;21.20;98.20;;;;;;5033664;28;20358;-41
2023/07/23 08:38:40;;;;;;;2.25;1.70;;;21.20;98.20;;;;;;5033513;28;20064;-41
2023/07/23 08:41:35;;;;;;;2.38;1.30;;;21.20;98.20;;;;;;5033654;28;20438;-40
2023/07/23 08:44:37;;;;;;;1.30;1.10;;;21.20;98.20;;;;;;5033364;28;20485;-41
2023/07/23 08:47:11;;;;;;;2.03;1.45;;;21.20;98.20;;;;;;5033465;28;20037;-41
2023/07/23 08:49:40;;;;;;;2.08;1.30;;;21.20;98.20;;;;;;5033148;28;20025;-42
2023/07/23 08:52:06;;;;;;;1.63;1.20;;;21.30;98.30;;;;;;5033363;28;20057;-41
2023/07/23 08:54:32;;;;;;;2.35;1.50;;;21.20;98.20;;;;;;5033076;28;20477;-44
2023/07/23 08:56:59;;;;;;;1.02;0.93;;;21.20;98.20;;;;;;5015703;28;20030;-42
2023/07/23 08:59:27;;;;;;;2.15;1.23;;;21.20;98.20;;;;;;5033029;28;20389;-41
2023/07/23 09:01:54;;;;;;;1.55;1.30;;;21.20;98.30;;;;;;5033115;28;20436;-42
2023/07/23 09:04:20;;;;;;;3.28;1.30;;;21.20;98.20;;;;;;5033206;28;20036;-42
2023/07/23 09:06:47;;;;;;;1.67;1.30;;;21.20;98.20;;;;;;5033032;28;20029;-46
2023/07/23 09:09:13;;;;;;;1.80;1.30;;;21.20;98.20;;;;;;5031423;28;20437;-42
2023/07/23 09:11:39;;;;;;;1.95;1.58;;;21.30;98.30;;;;;;5032994;28;20034;-42
2023/07/23 09:14:13;;;;;;;2.28;1.48;;;21.20;98.20;;;;;;5032770;28;20362;-45
2023/07/23 09:16:49;;;;;;;2.87;1.63;;;21.20;98.20;;;;;;5032913;28;20097;-43
2023/07/23 09:19:22;;;;;;;2.42;1.48;;;21.20;98.20;;;;;;5032890;28;20276;-45
2023/07/23 09:21:48;;;;;;;1.70;1.38;;;21.30;98.30;;;;;;5032800;28;20493;-42
2023/07/23 09:24:15;;;;;;;2.00;1.35;;;21.20;98.20;;;;;;5032852;28;20080;-43
2023/07/23 09:26:42;;;;;;;1.55;1.40;;;21.20;98.20;;;;;;5032925;28;20053;-43
2023/07/23 09:29:09;;;;;;;1.63;1.30;;;21.30;98.30;;;;;;5032564;28;20029;-42
2023/07/23 09:31:36;;;;;;;1.88;1.50;;;21.20;98.20;;;;;;5032663;28;20026;-42
2023/07/23 09:34:03;;;;;;;4.13;1.50;;;21.20;98.20;;;;;;5032354;28;20044;-44
2023/07/23 09:36:30;;;;;;;1.60;1.35;;;21.20;98.20;;;;;;5033087;28;20025;-41
2023/07/23 09:39:02;;;;;;;2.10;1.35;;;21.20;98.20;;;;;;5032228;28;20488;-41
2023/07/23 09:41:37;;;;;;;2.13;1.17;;;21.20;98.20;;;;;;5032408;28;20019;-41
2023/07/23 09:44:09;;;;;;;2.30;1.30;;;21.30;98.30;;;;;;5032442;28;20429;-40
2023/07/23 09:46:40;;;;;;;1.95;1.45;;;21.30;98.30;;;;;;5032149;28;20029;-42
2023/07/23 09:49:06;;;;;;;1.70;1.20;;;21.30;98.30;;;;;;5031979;28;20108;-42
2023/07/23 09:51:32;;;;;;;1.55;1.23;;;21.30;98.30;;;;;;5032308;28;20392;-42
2023/07/23 09:54:02;;;;;;;3.33;1.40;;;21.30;98.20;;;;;;5032092;28;20106;-41
2023/07/23 09:56:28;;;;;;;1.70;1.50;;;21.30;98.30;;;;;;5032075;28;20028;-41
2023/07/23 09:58:54;;;;;;;2.80;1.20;;;21.30;98.30;;;;;;5031779;28;20037;-44
2023/07/23 10:01:20;;;;;;;2.03;1.30;;;21.30;98.30;;;;;;5031824;28;20056;-43
2023/07/23 10:03:48;;;;;;;1.58;1.42;;;21.30;98.30;;;;;;5031960;28;20100;-44
2023/07/23 10:06:21;;;;;;;1.48;1.20;;;21.30;98.30;;;;;;5031994;28;20037;-41
2023/07/23 10:08:48;;;;;;;1.73;1.17;;;21.30;98.30;;;;;;5031722;28;20026;-41
2023/07/23 10:11:16;;;;;;;1.30;1.20;;;21.30;98.30;;;;;;5031797;28;20021;-44
2023/07/23 10:13:43;;;;;;;2.33;1.40;;;21.30;98.30;;;;;;5031611;28;20029;-44
2023/07/23 10:16:32;;;;;;;1.42;1.23;;;21.30;98.30;;;;;;5031791;28;20045;-41
2023/07/23 10:19:00;;;;;;;3.58;1.40;;;21.30;98.30;;;;;;5031107;28;20110;-42
2023/07/23 10:21:30;;;;;;;2.00;1.50;;;21.30;98.30;;;;;;5031700;28;20389;-44
2023/07/23 10:23:58;;;;;;;2.15;1.27;;;21.30;98.30;;;;;;5031635;28;20029;-42
2023/07/23 10:26:27;;;;;;;1.88;1.50;;;21.30;98.20;;;;;;5031643;28;20052;-43
2023/07/23 10:29:14;;;;;;;1.55;1.20;;;21.30;98.30;;;;;;5031536;28;20025;-44
2023/07/23 10:31:42;;;;;;;1.63;1.30;;;21.30;98.30;;;;;;5031528;28;20037;-43
2023/07/23 10:34:23;;;;;;;1.52;1.20;;;21.30;98.30;;;;;;5031377;28;20021;-45
2023/07/23 10:37:14;;;;;;;1.35;1.15;;;21.30;98.30;;;;;;5031620;28;20363;-44
2023/07/23 10:39:42;;;;;;;2.30;1.38;;;21.40;98.30;;;;;;5031101;28;20026;-43
2023/07/23 10:42:08;;;;;;;1.90;1.35;;;21.30;98.30;;;;;;5031353;28;20044;-42
2023/07/23 10:44:37;;;;;;;1.60;1.30;;;21.30;98.20;;;;;;5031357;28;20025;-45
2023/07/23 10:47:32;;;;;;;1.35;1.20;;;21.40;98.30;;;;;;5031285;28;20480;-43
2023/07/23 10:50:18;;;;;;;3.25;1.20;;;21.30;98.20;;;;;;5031282;28;20075;-42
2023/07/23 10:52:45;;;;;;;1.48;1.15;;;21.40;98.30;;;;;;5031210;28;20468;-43
2023/07/23 10:55:11;;;;;;;1.42;1.33;;;21.40;98.30;;;;;;5031195;28;20033;-45
2023/07/23 10:57:39;;;;;;;1.40;1.20;;;21.40;98.30;;;;;;5031116;28;20025;-45
2023/07/23 11:00:21;;;;;;;1.65;1.40;;;21.40;98.30;;;;;;5031304;28;20022;-46
2023/07/23 11:02:48;;;;;;;1.77;1.40;;;21.40;98.20;;;;;;5031192;28;20028;-42
2023/07/23 11:05:14;;;;;;;1.80;1.27;;;21.40;98.20;;;;;;5031136;28;20026;-46
2023/07/23 11:07:40;;;;;;;1.88;1.30;;;21.40;98.30;;;;;;5031029;28;20485;-43
2023/07/23 11:10:19;;;;;;;1.90;1.42;;;21.40;98.20;;;;;;5030732;28;20040;-42
2023/07/23 11:12:46;;;;;;;1.70;1.40;;;21.40;98.20;;;;;;5031147;28;20036;-43
2023/07/23 11:15:15;;;;;;;1.92;1.40;;;21.40;98.20;;;;;;5031063;28;20497;-41
2023/07/23 11:17:41;;;;;;;2.42;1.50;;;21.40;98.20;;;;;;5030803;28;20031;-41
2023/07/23 11:20:07;;;;;;;1.85;1.38;;;21.40;98.20;;;;;;5030819;28;20104;-42
2023/07/23 11:22:33;;;;;;;1.70;1.40;;;21.40;98.20;;;;;;5030819;28;20022;-47
2023/07/23 11:24:58;;;;;;;1.60;1.33;;;21.40;98.20;;;;;;5031147;28;20030;-42
2023/07/23 11:27:24;;;;;;;1.77;1.50;;;21.40;98.20;;;;;;5030951;28;20022;-44
2023/07/23 11:29:49;;;;;;;1.38;1.20;;;21.40;98.20;;;;;;5030837;28;20441;-44
2023/07/23 11:32:15;;;;;;;3.20;1.50;;;21.40;98.20;;;;;;5033099;28;20100;-43
2023/07/23 11:34:41;;;;;;;3.05;1.40;;;21.50;98.20;;;;;;5034679;28;20025;-41
2023/07/23 11:37:10;;;;;;;2.13;1.40;;;21.40;98.10;;;;;;5034613;28;20148;-43
2023/07/23 11:39:35;;;;;;;1.65;1.30;;;21.40;98.10;;;;;;5034422;28;20407;-41
2023/07/23 11:42:01;;;;;;;1.60;1.50;;;21.40;98.10;;;;;;5034666;28;20100;-41
2023/07/23 11:44:27;;;;;;;1.85;1.30;;;21.50;98.10;;;;;;5034731;28;20493;-42
2023/07/23 11:47:01;;;;;;;1.55;1.45;;;21.50;98.10;;;;;;5034612;28;20512;-41
2023/07/23 11:49:26;;;;;;;;;;;21.50;98.10;;;;;;5034581;28;20053;-43
2023/07/23 11:51:52;;;;;;;1.80;1.13;;;21.50;98.10;;;;;;5034503;28;20018;-42
2023/07/23 11:54:18;;;;;;;2.22;1.35;;;21.50;98.10;;;;;;5034351;28;20065;-42
2023/07/23 11:56:48;;;;;;;1.75;1.30;;;21.50;98.10;;;;;;5034388;28;20021;-41
2023/07/23 11:59:16;;;;;;;2.50;1.48;;;21.50;98.10;;;;;;5034131;28;20152;-42
2023/07/23 12:01:42;;;;;;;1.80;1.40;;;21.50;98.10;;;;;;5034319;28;20029;-44
2023/07/23 12:04:09;;;;;;;1.65;1.48;;;21.50;98.10;;;;;;5034130;28;20036;-42
2023/07/23 12:06:39;;;;;;;3.83;1.52;;;21.50;98.10;;;;;;5034208;28;20026;-42
2023/07/23 12:09:07;;;;;;;1.60;1.40;;;21.50;98.10;;;;;;5033829;28;20022;-43
2023/07/23 12:11:32;;;;;;;1.98;1.52;;;21.50;98.10;;;;;;5034148;28;20045;-41
2023/07/23 12:14:02;;;;;;;2.78;1.73;;;21.50;98.00;;;;;;5033971;28;20065;-43
2023/07/23 12:16:49;;;;;;;2.60;1.52;;;21.50;98.00;;;;;;5034438;28;20028;-41
2023/07/23 12:19:17;;;;;;;2.88;1.45;;;21.50;98.00;;;;;;5033638;28;20088;-41
2023/07/23 12:21:47;;;;;;;2.17;1.58;;;21.50;98.00;;;;;;5033942;28;20021;-41
2023/07/23 12:24:22;;;;;;;2.53;1.67;;;21.50;98.00;;;;;;5033854;28;20075;-42
2023/07/23 12:26:49;;;;;;;;;;;21.50;98.00;;;;;;5034327;28;20056;-42
2023/07/23 12:29:16;;;;;;;2.28;1.50;;;21.50;98.00;;;;;;5033386;28;19905;-42
2023/07/23 12:31:43;;;;;;;1.65;1.38;;;21.50;98.00;;;;;;5016037;28;20037;-41
2023/07/23 12:34:12;;;;;;;4.70;1.58;;;21.50;98.00;;;;;;5033581;28;20032;-41
2023/07/23 12:36:39;;;;;;;3.30;1.42;;;21.50;98.00;;;;;;5033667;28;20029;-42
2023/07/23 12:39:06;;;;;;;2.13;1.70;;;21.50;98.00;;;;;;5033357;28;20030;-42
2023/07/23 12:41:32;;;;;;;1.85;1.60;;;21.50;98.00;;;;;;5033479;28;20493;-42
2023/07/23 12:43:57;;;;;;;2.05;1.60;;;21.50;98.00;;;;;;5033255;28;20053;-42
2023/07/23 12:46:23;;;;;;;2.10;1.60;;;21.50;98.00;;;;;;5033464;28;20036;-43
2023/07/23 12:48:49;;;;;;;1.63;1.40;;;21.50;98.00;;;;;;5033469;28;20040;-43